createdAt,value
2023-04-04T00:00:19.322Z,2.22
2023-04-04T00:02:52.184Z,2.78
2023-04-04T00:05:24.749Z,2.75
2023-04-04T00:08:00.489Z,2.90
2023-04-04T00:10:38.026Z,2.70
2023-04-04T00:13:12.229Z,2.75
2023-04-04T00:15:50.964Z,3.65
2023-04-04T00:18:34.176Z,3.97
2023-04-04T00:21:07.395Z,2.50
2023-04-04T00:23:37.167Z,2.33
2023-04-04T00:26:06.747Z,3.15
2023-04-04T00:28:44.248Z,3.40
2023-04-04T00:31:16.155Z,3.20
2023-04-04T00:33:57.439Z,3.15
2023-04-04T00:36:35.209Z,3.17
2023-04-04T00:39:07.653Z,3.28
2023-04-04T00:41:45.987Z,2.85
2023-04-04T00:44:21.716Z,3.55
2023-04-04T00:46:59.002Z,3.58
2023-04-04T00:49:34.090Z,3.47
2023-04-04T00:52:03.738Z,3.50
2023-04-04T00:57:28.284Z,3.15
2023-04-04T01:00:03.161Z,3.73
2023-04-04T01:02:48.577Z,2.47
2023-04-04T01:05:27.744Z,3.28
2023-04-04T01:08:03.610Z,2.88
2023-04-04T01:10:40.125Z,3.15
2023-04-04T01:13:17.681Z,3.35
2023-04-04T01:16:01.922Z,4.30
2023-04-04T01:18:41.743Z,2.95
2023-04-04T01:21:21.953Z,3.35
2023-04-04T01:24:06.487Z,3.47
2023-04-04T01:26:57.098Z,3.20
2023-04-04T01:29:38.974Z,3.60
2023-04-04T01:32:24.464Z,3.00
2023-04-04T01:35:05.207Z,4.35
2023-04-04T01:37:52.078Z,3.80
2023-04-04T01:40:35.829Z,3.33
2023-04-04T01:43:20.638Z,3.90
2023-04-04T01:46:03.602Z,3.58
2023-04-04T01:48:50.993Z,3.60
2023-04-04T01:51:47.678Z,3.90
2023-04-04T01:54:21.228Z,3.58
2023-04-04T01:57:07.151Z,3.45
2023-04-04T02:02:31.123Z,3.15
2023-04-04T02:05:11.520Z,3.25
2023-04-04T02:07:41.712Z,3.65
2023-04-04T02:10:32.628Z,4.22
2023-04-04T02:13:16.633Z,3.60
2023-04-04T02:16:05.186Z,3.40
2023-04-04T02:18:39.346Z,3.90
2023-04-04T02:21:15.261Z,3.38
2023-04-04T02:24:02.368Z,4.07
2023-04-04T02:26:32.940Z,3.50
2023-04-04T02:29:00.356Z,2.95
2023-04-04T02:31:40.262Z,3.05
2023-04-04T02:34:20.308Z,3.70
2023-04-04T02:37:07.685Z,3.45
2023-04-04T02:39:37.980Z,3.10
2023-04-04T02:42:07.714Z,3.88
2023-04-04T02:44:41.118Z,3.38
2023-04-04T02:47:19.535Z,3.05
2023-04-04T02:49:52.148Z,3.10
2023-04-04T02:52:22.352Z,3.17
2023-04-04T02:54:58.630Z,3.15
2023-04-04T02:57:37.575Z,2.83
2023-04-04T03:00:20.540Z,2.97
2023-04-04T03:03:28.544Z,3.03
2023-04-04T03:06:01.797Z,3.00
2023-04-04T03:08:38.438Z,3.30
2023-04-04T03:11:16.183Z,2.70
2023-04-04T03:13:56.116Z,3.30
2023-04-04T03:16:43.697Z,3.10
2023-04-04T03:19:19.692Z,2.50
2023-04-04T03:22:04.040Z,2.88
2023-04-04T03:24:35.908Z,2.42
2023-04-04T03:27:15.245Z,2.45
2023-04-04T03:29:50.871Z,2.65
2023-04-04T03:32:32.803Z,2.08
2023-04-04T03:35:03.324Z,1.88
2023-04-04T03:37:33.604Z,1.98
2023-04-04T03:40:06.136Z,1.92
2023-04-04T03:42:39.485Z,2.30
2023-04-04T03:45:12.906Z,2.53
2023-04-04T03:47:53.186Z,2.58
2023-04-04T03:50:39.018Z,2.40
2023-04-04T03:53:21.532Z,3.05
2023-04-04T03:56:07.459Z,3.42
2023-04-04T03:58:36.673Z,3.60
2023-04-04T04:01:04.104Z,4.60
2023-04-04T04:03:42.293Z,3.70
2023-04-04T04:06:20.482Z,3.50
2023-04-04T04:08:54.331Z,3.80
2023-04-04T04:11:28.994Z,4.57
2023-04-04T04:14:05.023Z,4.45
2023-04-04T04:16:36.774Z,3.67
2023-04-04T04:19:19.381Z,4.20
2023-04-04T04:22:04.038Z,3.70
2023-04-04T04:24:37.573Z,4.07
2023-04-04T04:27:18.964Z,3.53
2023-04-04T04:29:51.716Z,3.60
2023-04-04T04:32:26.704Z,4.07
2023-04-04T04:35:04.889Z,3.45
2023-04-04T04:37:41.593Z,3.88
2023-04-04T04:40:21.899Z,3.75
2023-04-04T04:43:11.572Z,4.25
2023-04-04T04:45:51.001Z,3.38
2023-04-04T04:48:37.558Z,3.70
2023-04-04T04:51:20.244Z,3.42
2023-04-04T04:53:57.420Z,4.07
2023-04-04T04:56:30.165Z,4.82
2023-04-04T04:59:09.310Z,3.90
2023-04-04T05:01:46.206Z,4.18
2023-04-04T05:04:20.768Z,4.05
2023-04-04T05:07:08.393Z,4.32
2023-04-04T05:09:40.526Z,3.22
2023-04-04T05:16:08.064Z,3.65
2023-04-04T05:18:42.069Z,4.10
2023-04-04T05:21:17.708Z,3.95
2023-04-04T05:23:59.640Z,3.85
2023-04-04T05:26:43.605Z,3.30
2023-04-04T05:29:24.333Z,3.55
2023-04-04T05:32:05.872Z,4.03
2023-04-04T05:34:48.371Z,3.95
2023-04-04T05:37:41.380Z,3.97
2023-04-04T05:40:18.871Z,3.95
2023-04-04T05:42:58.644Z,4.25
2023-04-04T05:45:40.514Z,3.78
2023-04-04T05:48:36.780Z,3.83
2023-04-04T05:51:11.222Z,3.85
2023-04-04T05:53:51.151Z,3.97
2023-04-04T05:56:31.316Z,3.53
2023-04-04T05:59:12.669Z,4.57
2023-04-04T06:01:59.721Z,4.18
2023-04-04T06:04:38.547Z,4.03
2023-04-04T06:07:13.349Z,4.53
2023-04-04T06:09:58.667Z,3.50
2023-04-04T06:12:30.070Z,3.47
2023-04-04T06:15:03.541Z,4.30
2023-04-04T06:17:39.872Z,4.05
2023-04-04T06:20:14.116Z,4.10
2023-04-04T06:22:53.671Z,4.03
2023-04-04T06:25:27.072Z,4.68
2023-04-04T06:28:01.023Z,3.50
2023-04-04T06:30:38.349Z,4.40
2023-04-04T06:33:13.449Z,4.05
2023-04-04T06:35:50.327Z,4.35
2023-04-04T06:38:21.309Z,4.50
2023-04-04T06:40:53.302Z,4.95
2023-04-04T06:43:25.714Z,5.82
2023-04-04T06:46:21.680Z,5.43
2023-04-04T06:48:54.619Z,6.10
2023-04-04T06:51:39.692Z,4.07
2023-04-04T06:54:11.295Z,5.13
2023-04-04T06:56:44.546Z,4.93
2023-04-04T06:59:26.134Z,5.68
2023-04-04T07:02:02.341Z,4.35
2023-04-04T07:04:32.916Z,3.92
2023-04-04T07:07:03.075Z,4.25
2023-04-04T07:09:33.896Z,4.68
2023-04-04T07:12:03.555Z,4.28
2023-04-04T07:14:30.639Z,3.83
2023-04-04T07:17:23.695Z,4.65
2023-04-04T07:19:51.584Z,4.38
2023-04-04T07:22:18.717Z,4.05
2023-04-04T07:24:46.035Z,3.95
2023-04-04T07:27:15.489Z,5.82
2023-04-04T07:29:43.183Z,4.50
2023-04-04T07:32:10.275Z,3.85
2023-04-04T07:34:40.510Z,3.85
2023-04-04T07:37:07.614Z,3.70
2023-04-04T07:39:40.346Z,3.95
2023-04-04T07:42:10.172Z,4.40
2023-04-04T07:44:37.411Z,4.03
2023-04-04T07:47:10.030Z,4.60
2023-04-04T07:49:38.001Z,4.18
2023-04-04T07:52:07.562Z,4.40
2023-04-04T07:54:37.261Z,4.22
2023-04-04T07:57:09.974Z,4.50
2023-04-04T07:59:39.591Z,4.00
2023-04-04T08:02:09.676Z,3.85
2023-04-04T08:04:36.882Z,3.95
2023-04-04T08:07:04.244Z,3.10
2023-04-04T08:09:34.566Z,4.10
2023-04-04T08:12:13.221Z,4.30
2023-04-04T08:14:40.284Z,3.83
2023-04-04T08:17:07.374Z,4.25
2023-04-04T08:19:39.370Z,3.50
2023-04-04T08:22:06.609Z,2.92
2023-04-04T08:24:33.831Z,4.30
2023-04-04T08:27:05.012Z,3.45
2023-04-04T08:29:35.720Z,3.08
2023-04-04T08:32:03.157Z,2.53
2023-04-04T08:34:30.730Z,2.30
2023-04-04T08:37:01.885Z,2.17
2023-04-04T08:39:32.500Z,2.20
2023-04-04T08:42:07.870Z,1.90
2023-04-04T08:44:38.237Z,2.35
2023-04-04T08:47:11.110Z,2.22
2023-04-04T08:49:44.021Z,3.03
2023-04-04T08:52:19.576Z,2.60
2023-04-04T08:54:56.867Z,3.42
2023-04-04T08:57:25.117Z,4.65
2023-04-04T08:59:54.817Z,4.47
2023-04-04T09:02:49.509Z,3.08
2023-04-04T09:05:17.765Z,2.88
2023-04-04T09:07:45.369Z,3.28
2023-04-04T09:10:14.890Z,3.72
2023-04-04T09:12:47.798Z,3.30
2023-04-04T09:15:15.437Z,3.38
2023-04-04T09:17:43.718Z,2.40
2023-04-04T09:20:37.302Z,3.10
2023-04-04T09:23:26.089Z,2.95
2023-04-04T09:28:26.435Z,4.03
2023-04-04T09:30:53.432Z,3.17
2023-04-04T09:33:26.971Z,2.47
2023-04-04T09:36:11.357Z,2.85
2023-04-04T09:38:47.808Z,2.28
2023-04-04T09:41:21.631Z,2.10
2023-04-04T09:43:51.770Z,2.35
2023-04-04T09:46:22.074Z,2.33
2023-04-04T09:48:51.752Z,2.45
2023-04-04T09:51:22.929Z,2.20
2023-04-04T09:53:51.561Z,2.08
2023-04-04T09:56:22.647Z,1.42
2023-04-04T09:59:04.080Z,2.30
2023-04-04T10:01:56.155Z,1.77
2023-04-04T10:05:05.277Z,1.92
2023-04-04T10:08:03.488Z,2.00
2023-04-04T10:11:09.521Z,2.30
2023-04-04T10:14:07.038Z,1.60
2023-04-04T10:16:57.239Z,2.67
2023-04-04T10:19:49.084Z,2.08
2023-04-04T10:22:52.786Z,2.22
2023-04-04T10:25:45.075Z,2.15
2023-04-04T10:28:41.442Z,1.92
2023-04-04T10:31:30.685Z,2.63
2023-04-04T10:34:39.312Z,1.50
2023-04-04T10:37:43.746Z,2.03
2023-04-04T10:40:34.477Z,2.85
2023-04-04T10:43:12.568Z,4.18
2023-04-04T10:45:47.173Z,2.55
2023-04-04T10:48:43.972Z,1.65
2023-04-04T10:51:39.442Z,2.40
2023-04-04T10:54:23.457Z,2.40
2023-04-04T10:57:05.105Z,2.47
2023-04-04T11:00:20.563Z,1.95
2023-04-04T11:03:25.360Z,2.42
2023-04-04T11:13:14.673Z,2.22
2023-04-04T11:15:55.140Z,1.77
2023-04-04T11:19:03.281Z,2.72
2023-04-04T11:21:45.237Z,1.85
2023-04-04T11:24:26.216Z,2.38
2023-04-04T11:27:37.032Z,2.22
2023-04-04T11:30:30.778Z,1.80
2023-04-04T11:33:09.646Z,2.72
2023-04-04T11:35:44.991Z,1.75
2023-04-04T11:38:21.505Z,1.80
2023-04-04T11:41:11.140Z,2.50
2023-04-04T11:43:50.239Z,2.53
2023-04-04T11:46:50.478Z,1.98
2023-04-04T11:49:46.832Z,1.70
2023-04-04T11:52:28.734Z,2.00
2023-04-04T11:55:49.862Z,1.80
2023-04-04T11:59:19.728Z,3.03
2023-04-04T12:01:53.346Z,1.98
2023-04-04T12:04:35.765Z,1.90
2023-04-04T12:07:16.112Z,1.80
2023-04-04T12:09:49.198Z,1.95
2023-04-04T12:12:24.718Z,2.33
2023-04-04T12:15:17.055Z,1.88
2023-04-04T12:17:59.912Z,2.58
2023-04-04T12:20:37.958Z,1.90
2023-04-04T12:23:28.499Z,2.42
2023-04-04T12:26:14.725Z,2.30
2023-04-04T12:29:01.527Z,2.33
2023-04-04T12:31:37.688Z,2.00
2023-04-04T12:34:33.266Z,2.38
2023-04-04T12:37:43.408Z,2.17
2023-04-04T12:43:30.101Z,2.53
2023-04-04T12:46:39.725Z,2.95
2023-04-04T12:49:52.808Z,2.00
2023-04-04T12:52:50.625Z,2.20
2023-04-04T12:55:25.608Z,2.50
2023-04-04T12:58:04.955Z,1.83
2023-04-04T13:00:39.884Z,2.33
2023-04-04T13:03:18.697Z,1.67
2023-04-04T13:05:48.861Z,2.17
2023-04-04T13:08:20.524Z,1.80
2023-04-04T13:11:22.529Z,1.60
2023-04-04T13:14:25.942Z,1.90
2023-04-04T13:17:22.867Z,2.03
2023-04-04T13:19:53.044Z,1.98
2023-04-04T13:22:26.587Z,1.58
2023-04-04T13:25:09.051Z,2.17
2023-04-04T13:27:39.670Z,2.72
2023-04-04T13:30:13.824Z,2.15
2023-04-04T13:32:48.322Z,1.70
2023-04-04T13:35:19.572Z,2.92
2023-04-04T13:37:50.262Z,2.53
2023-04-04T13:40:17.929Z,2.10
2023-04-04T13:43:00.372Z,2.78
2023-04-04T13:45:49.952Z,2.22
2023-04-04T13:48:21.790Z,2.53
2023-04-04T13:51:21.226Z,1.98
2023-04-04T13:53:49.232Z,2.65
2023-04-04T13:56:49.461Z,2.00
2023-04-04T14:02:12.869Z,2.38
2023-04-04T14:05:17.166Z,2.13
2023-04-04T14:16:56.913Z,1.88
2023-04-04T14:19:33.429Z,2.10
2023-04-04T14:22:07.438Z,2.00
2023-04-04T14:24:48.786Z,2.10
2023-04-04T14:31:21.837Z,2.17
2023-04-04T14:39:07.111Z,2.17
2023-04-04T14:41:41.196Z,1.77
2023-04-04T14:44:33.595Z,2.95
2023-04-04T14:47:20.654Z,3.15
2023-04-04T14:49:56.005Z,1.67
2023-04-04T14:52:34.116Z,2.00
2023-04-04T14:55:14.006Z,2.30
2023-04-04T14:58:02.559Z,1.63
2023-04-04T15:00:40.977Z,2.67
2023-04-04T15:03:41.406Z,2.30
2023-04-04T15:06:21.827Z,2.22
2023-04-04T15:08:50.104Z,1.88
2023-04-04T15:11:29.536Z,2.83
2023-04-04T15:14:07.084Z,2.28
2023-04-04T15:16:41.074Z,2.15
2023-04-04T15:19:28.805Z,1.92
2023-04-04T15:22:07.488Z,2.25
2023-04-04T15:24:37.222Z,1.75
2023-04-04T15:27:29.860Z,1.98
2023-04-04T15:30:01.843Z,1.60
2023-04-04T15:32:53.187Z,1.60
2023-04-04T15:35:29.970Z,1.70
2023-04-04T15:38:15.941Z,1.67
2023-04-04T15:40:48.659Z,1.60
2023-04-04T15:43:18.291Z,2.10
2023-04-04T15:45:52.689Z,1.92
2023-04-04T15:48:24.232Z,1.73
2023-04-04T15:51:06.799Z,1.58
2023-04-04T15:53:42.366Z,1.83
2023-04-04T15:56:22.932Z,1.90
2023-04-04T15:58:53.988Z,2.17
2023-04-04T16:01:28.811Z,2.08
2023-04-04T16:04:09.120Z,1.83
2023-04-04T16:07:04.734Z,2.30
2023-04-04T16:09:46.700Z,2.20
2023-04-04T16:12:44.400Z,1.95
2023-04-04T16:15:45.163Z,2.13
2023-04-04T16:18:42.188Z,1.85
2023-04-04T16:21:31.701Z,2.33
2023-04-04T16:24:06.719Z,1.73
2023-04-04T16:26:48.672Z,1.63
2023-04-04T16:29:23.600Z,1.40
2023-04-04T16:32:11.342Z,1.73
2023-04-04T16:34:45.946Z,1.75
2023-04-04T16:37:19.041Z,1.70
2023-04-04T16:39:55.384Z,2.22
2023-04-04T16:42:34.221Z,1.40
2023-04-04T16:45:13.145Z,1.80
2023-04-04T16:47:51.035Z,1.83
2023-04-04T16:50:30.017Z,1.77
2023-04-04T16:53:25.113Z,1.60
2023-04-04T16:56:13.781Z,1.70
2023-04-04T16:58:54.631Z,2.25
2023-04-04T17:01:29.972Z,1.90
2023-04-04T17:04:16.836Z,2.38
2023-04-04T17:06:54.431Z,1.45
2023-04-04T17:09:25.685Z,1.58
2023-04-04T17:12:06.269Z,1.58
2023-04-04T17:14:37.602Z,1.90
2023-04-04T17:17:12.618Z,1.50
2023-04-04T17:19:55.431Z,1.50
2023-04-04T17:22:27.587Z,1.40
2023-04-04T17:24:57.932Z,1.83
2023-04-04T17:27:54.310Z,1.90
2023-04-04T17:30:31.974Z,1.60
2023-04-04T17:33:11.332Z,1.42
2023-04-04T17:35:41.356Z,1.40
2023-04-04T17:38:14.898Z,1.67
2023-04-04T17:43:27.332Z,1.40
2023-04-04T17:46:21.170Z,1.65
2023-04-04T17:49:25.011Z,1.50
2023-04-04T17:52:05.099Z,1.60
2023-04-04T17:54:42.574Z,2.22
2023-04-04T17:57:15.988Z,1.90
2023-04-04T18:03:06.914Z,2.63
2023-04-04T18:06:03.180Z,2.08
2023-04-04T18:08:36.840Z,1.70
2023-04-04T18:11:19.328Z,3.10
2023-04-04T18:13:53.612Z,1.40
2023-04-04T18:16:22.759Z,1.85
2023-04-04T18:18:57.291Z,1.58
2023-04-04T18:21:48.674Z,1.77
2023-04-04T18:24:21.827Z,1.83
2023-04-04T18:26:53.876Z,2.25
2023-04-04T18:29:31.832Z,1.88
2023-04-04T18:32:06.938Z,1.95
2023-04-04T18:34:35.705Z,2.10
2023-04-04T18:37:12.846Z,1.70
2023-04-04T18:39:41.305Z,2.10
2023-04-04T18:42:37.299Z,2.05
2023-04-04T18:45:39.487Z,3.33
2023-04-04T18:48:15.098Z,1.40
2023-04-04T18:50:49.389Z,1.63
2023-04-04T18:53:34.714Z,1.80
2023-04-04T18:56:30.222Z,1.80
2023-04-04T18:59:11.856Z,5.40
2023-04-04T19:01:57.499Z,1.55
2023-04-04T19:04:39.880Z,2.05
2023-04-04T19:07:43.021Z,1.73
2023-04-04T19:10:31.785Z,1.65
2023-04-04T19:13:21.514Z,1.83
2023-04-04T19:16:12.200Z,1.83
2023-04-04T19:19:30.264Z,1.75
2023-04-04T19:22:09.709Z,2.25
2023-04-04T19:24:54.208Z,2.13
2023-04-04T19:27:54.691Z,2.10
2023-04-04T19:30:49.936Z,1.50
2023-04-04T19:33:42.761Z,2.20
2023-04-04T19:36:32.163Z,1.63
2023-04-04T19:39:27.480Z,3.40
2023-04-04T19:45:03.749Z,1.58
2023-04-04T19:47:43.302Z,2.40
2023-04-04T19:51:04.012Z,1.98
2023-04-04T19:54:04.432Z,1.92
2023-04-04T19:56:48.745Z,1.75
2023-04-04T19:59:59.830Z,2.67
2023-04-04T20:03:00.149Z,2.28
2023-04-04T20:05:46.869Z,2.03
2023-04-04T20:08:26.857Z,1.80
2023-04-04T20:11:23.638Z,2.80
2023-04-04T20:14:11.528Z,2.15
2023-04-04T20:17:04.893Z,2.40
2023-04-04T20:19:40.447Z,2.23
2023-04-04T20:22:20.480Z,2.00
2023-04-04T20:25:31.748Z,2.60
2023-04-04T20:28:33.474Z,2.50
2023-04-04T20:34:02.952Z,2.28
2023-04-04T20:36:39.546Z,2.22
2023-04-04T20:39:44.283Z,2.85
2023-04-04T20:42:32.554Z,2.50
2023-04-04T20:45:44.175Z,3.70
2023-04-04T20:48:41.811Z,2.42
2023-04-04T20:51:32.023Z,2.25
2023-04-04T20:54:05.758Z,1.85
2023-04-04T20:56:53.255Z,2.90
2023-04-04T21:00:05.738Z,2.70
2023-04-04T21:02:55.155Z,2.60
2023-04-04T21:05:42.314Z,2.67
2023-04-04T21:08:42.341Z,1.92
2023-04-04T21:11:38.760Z,2.90
2023-04-04T21:14:08.672Z,2.13
2023-04-04T21:16:42.143Z,2.30
2023-04-04T21:19:13.645Z,2.53
2023-04-04T21:21:45.680Z,2.90
2023-04-04T21:26:56.470Z,2.10
2023-04-04T21:29:35.755Z,2.20
2023-04-04T21:32:22.327Z,2.30
2023-04-04T21:34:56.680Z,1.83
2023-04-04T21:37:26.675Z,2.20
2023-04-04T21:40:09.747Z,2.10
2023-04-04T21:42:49.510Z,2.50
2023-04-04T21:45:37.057Z,2.33
2023-04-04T21:48:07.510Z,2.72
2023-04-04T21:50:52.774Z,2.30
2023-04-04T21:53:42.303Z,2.28
2023-04-04T21:56:23.480Z,2.58
2023-04-04T21:58:53.598Z,1.95
2023-04-04T22:01:26.964Z,2.28
2023-04-04T22:03:56.570Z,1.98
2023-04-04T22:06:31.117Z,2.67
2023-04-04T22:09:03.332Z,2.63
2023-04-04T22:11:35.150Z,2.22
2023-04-04T22:14:05.995Z,2.20
2023-04-04T22:16:43.232Z,2.47
2023-04-04T22:19:11.734Z,2.17
2023-04-04T22:21:50.184Z,1.95
2023-04-04T22:24:21.469Z,1.85
2023-04-04T22:27:11.698Z,1.92
2023-04-04T22:29:44.497Z,2.30
2023-04-04T22:32:18.858Z,2.28
2023-04-04T22:35:15.057Z,2.40
2023-04-04T22:37:48.512Z,2.13
2023-04-04T22:40:27.013Z,2.30
2023-04-04T22:42:55.424Z,3.47
2023-04-04T22:45:26.010Z,2.35
2023-04-04T22:47:58.532Z,2.45
2023-04-04T22:50:29.467Z,2.05
2023-04-04T22:52:58.928Z,1.73
2023-04-04T22:55:29.195Z,1.85
2023-04-04T22:57:56.971Z,2.22
2023-04-04T23:00:35.759Z,1.95
2023-04-04T23:03:06.438Z,2.10
2023-04-04T23:05:50.069Z,1.98
2023-04-04T23:08:17.272Z,2.03
2023-04-04T23:10:47.282Z,1.40
2023-04-04T23:13:21.289Z,1.95
2023-04-04T23:15:59.058Z,1.60
2023-04-04T23:18:28.035Z,1.67
2023-04-04T23:20:55.274Z,1.70
2023-04-04T23:23:29.851Z,1.80
2023-04-04T23:26:00.241Z,1.40
2023-04-04T23:28:34.945Z,1.83
2023-04-04T23:31:05.726Z,1.63
2023-04-04T23:33:35.506Z,1.77
2023-04-04T23:36:05.268Z,2.47
2023-04-04T23:38:33.721Z,1.83
2023-04-04T23:41:03.297Z,1.80
2023-04-04T23:43:30.965Z,2.30
2023-04-04T23:46:10.938Z,1.90
2023-04-04T23:48:43.671Z,1.85
2023-04-04T23:51:11.146Z,1.75
2023-04-04T23:53:50.188Z,1.30
2023-04-04T23:56:19.055Z,1.63
2023-04-04T23:58:48.640Z,1.80
